Time;durP1;ratioP1;P1;durP2;ratioP2;P2;SDS_P1;SDS_P2;PMS_P1;PMS_P2;Temp;Humidity;BMP_temperature;BMP_pressure;BME280_temperature;BME280_humidity;BME280_pressure;Samples;Min_cycle;Max_cycle;Signal;HPM_P1;HPM_P2
2023/03/13 00:01:32;;;;;;;11.23;5.10;;;21.20;99.90;;;;;;5027006;28;20032;-66
2023/03/13 00:03:59;;;;;;;11.00;4.47;;;21.10;99.90;;;;;;5026504;28;20048;-67
2023/03/13 00:06:33;;;;;;;12.55;5.00;;;21.10;99.90;;;;;;5029640;28;20025;-70
2023/03/13 00:09:02;;;;;;;12.10;3.63;;;21.10;99.90;;;;;;5044427;28;20371;-77
2023/03/13 00:11:30;;;;;;;12.45;4.60;;;21.20;99.90;;;;;;5015396;28;20026;-74
2023/03/13 00:14:00;;;;;;;11.07;4.80;;;21.20;99.90;;;;;;5030779;28;20029;-70
2023/03/13 00:16:28;;;;;;;9.73;4.25;;;21.30;99.90;;;;;;5028253;28;20025;-67
2023/03/13 00:18:57;;;;;;;13.82;4.38;;;21.20;99.90;;;;;;5034632;28;20030;-69
2023/03/13 00:21:27;;;;;;;7.65;4.40;;;21.20;99.90;;;;;;5029665;28;20132;-68
2023/03/13 00:23:54;;;;;;;13.75;4.03;;;21.10;99.90;;;;;;5030000;28;20060;-76
2023/03/13 00:26:24;;;;;;;11.50;3.75;;;20.90;99.90;;;;;;5026203;28;20116;-78
2023/03/13 00:28:52;;;;;;;12.95;3.88;;;20.80;99.90;;;;;;5037555;28;20034;-66
2023/03/13 00:31:24;;;;;;;15.63;3.25;;;20.70;99.90;;;;;;5029507;28;20081;-63
2023/03/13 00:33:59;;;;;;;13.68;3.70;;;20.50;99.90;;;;;;5027216;28;20025;-66
2023/03/13 00:36:33;;;;;;;12.43;3.47;;;20.50;99.90;;;;;;5032954;28;20029;-65
2023/03/13 00:39:00;;;;;;;12.77;4.33;;;20.50;99.90;;;;;;5027801;28;20132;-67
2023/03/13 00:41:30;;;;;;;13.77;3.05;;;20.50;99.90;;;;;;5027072;28;20041;-67
2023/03/13 00:43:58;;;;;;;13.10;4.15;;;20.50;99.90;;;;;;5030343;28;20032;-66
2023/03/13 00:46:27;;;;;;;9.38;3.45;;;20.50;99.90;;;;;;5028103;28;20482;-66
2023/03/13 00:48:55;;;;;;;7.95;4.20;;;20.50;99.90;;;;;;5030379;28;20033;-66
2023/03/13 00:51:25;;;;;;;5.70;2.53;;;20.50;99.90;;;;;;5033444;28;20033;-66
2023/03/13 00:53:53;;;;;;;9.68;2.95;;;20.70;99.90;;;;;;5031164;28;20022;-68
2023/03/13 00:56:21;;;;;;;11.88;3.15;;;20.80;99.90;;;;;;5038048;28;20038;-66
2023/03/13 00:58:50;;;;;;;10.40;3.13;;;20.90;99.90;;;;;;5037324;28;20585;-65
2023/03/13 01:01:28;;;;;;;10.55;3.33;;;21.00;99.90;;;;;;5025046;28;20036;-66
2023/03/13 01:03:57;;;;;;;14.15;4.25;;;21.20;99.90;;;;;;5029628;28;20109;-65
2023/03/13 01:06:29;;;;;;;9.40;3.15;;;21.30;99.90;;;;;;5029685;28;20041;-65
2023/03/13 01:08:56;;;;;;;9.15;2.80;;;21.30;99.90;;;;;;5026192;28;20035;-65
2023/03/13 01:11:29;;;;;;;9.93;2.53;;;21.50;99.90;;;;;;5025201;28;20026;-64
2023/03/13 01:14:02;;;;;;;9.95;3.50;;;21.60;99.90;;;;;;5029305;28;20060;-66
2023/03/13 01:16:31;;;;;;;11.68;3.55;;;21.60;99.90;;;;;;5025392;28;20108;-68
2023/03/13 01:19:06;;;;;;;10.85;3.10;;;21.60;99.90;;;;;;5026239;28;20044;-67
2023/03/13 01:21:34;;;;;;;6.90;3.25;;;21.60;99.90;;;;;;5033073;28;20033;-67
2023/03/13 01:24:02;;;;;;;10.48;2.92;;;21.60;99.90;;;;;;5036100;28;20033;-67
2023/03/13 01:26:29;;;;;;;7.93;2.70;;;21.50;99.90;;;;;;5025874;28;20040;-67
2023/03/13 01:28:57;;;;;;;5.55;2.17;;;21.50;99.90;;;;;;5021241;28;20494;-67
2023/03/13 01:31:31;;;;;;;12.30;3.97;;;21.40;99.90;;;;;;5018421;28;20758;-67
2023/03/13 01:34:01;;;;;;;8.90;3.58;;;21.50;99.90;;;;;;5037481;28;20029;-62
2023/03/13 01:36:29;;;;;;;7.00;4.13;;;21.60;99.90;;;;;;5028936;28;20132;-62
2023/03/13 01:38:59;;;;;;;7.53;4.22;;;21.60;99.90;;;;;;5019246;28;20200;-62
2023/03/13 01:41:29;;;;;;;7.05;3.63;;;21.60;99.90;;;;;;5029313;28;20381;-61
2023/03/13 01:43:57;;;;;;;6.75;2.83;;;21.60;99.90;;;;;;5027299;28;20115;-62
2023/03/13 01:46:26;;;;;;;6.88;2.67;;;21.40;99.90;;;;;;5025092;28;20029;-63
2023/03/13 01:49:09;;;;;;;7.95;1.80;;;21.50;99.90;;;;;;5028111;28;20017;-62
2023/03/13 01:52:03;;;;;;;7.82;2.15;;;21.40;99.90;;;;;;5041394;28;20463;-63
2023/03/13 01:55:00;;;;;;;5.05;1.80;;;21.60;99.90;;;;;;5029143;28;20482;-62
2023/03/13 01:57:49;;;;;;;6.40;1.50;;;21.70;99.90;;;;;;5032156;28;20392;-65
2023/03/13 02:00:24;;;;;;;9.15;2.03;;;21.80;99.90;;;;;;5045061;28;20059;-65
2023/03/13 02:02:58;;;;;;;4.70;1.50;;;22.00;99.90;;;;;;5027254;28;20042;-66
2023/03/13 02:05:28;;;;;;;6.63;1.77;;;22.00;99.90;;;;;;5022860;28;20052;-66
2023/03/13 02:08:08;;;;;;;11.18;1.60;;;22.20;99.90;;;;;;5022916;28;21287;-68
2023/03/13 02:10:41;;;;;;;6.88;1.38;;;22.20;99.90;;;;;;5019467;28;20112;-65
2023/03/13 02:13:13;;;;;;;4.90;1.35;;;22.30;99.90;;;;;;5045126;28;20112;-66
2023/03/13 02:15:41;;;;;;;6.13;1.30;;;22.30;99.90;;;;;;5024628;28;20022;-66
2023/03/13 02:18:09;;;;;;;7.32;1.80;;;22.50;99.90;;;;;;5018593;28;21071;-66
2023/03/13 02:20:39;;;;;;;11.75;2.30;;;22.60;99.90;;;;;;5028411;28;20079;-66
2023/03/13 02:23:29;;;;;;;5.15;2.40;;;22.70;99.90;;;;;;5024732;28;20044;-71
2023/03/13 02:25:56;;;;;;;2.78;1.55;;;22.70;99.90;;;;;;5027221;28;20021;-67
2023/03/13 02:28:32;;;;;;;4.72;1.55;;;22.80;99.90;;;;;;5034660;28;20030;-66
2023/03/13 02:31:00;;;;;;;3.78;1.98;;;22.90;99.90;;;;;;5028104;28;20084;-68
2023/03/13 02:33:30;;;;;;;6.07;1.40;;;22.90;99.90;;;;;;5042269;28;20152;-67
2023/03/13 02:36:00;;;;;;;6.63;1.90;;;23.00;99.90;;;;;;5033164;28;20490;-69
2023/03/13 02:38:30;;;;;;;4.35;1.40;;;23.10;99.90;;;;;;5025114;28;20680;-68
2023/03/13 02:40:59;;;;;;;6.30;1.90;;;23.10;99.90;;;;;;5013004;28;20034;-69
2023/03/13 02:43:35;;;;;;;4.63;2.58;;;23.20;99.90;;;;;;5041028;28;20029;-65
2023/03/13 02:46:12;;;;;;;6.25;1.52;;;23.20;99.90;;;;;;5033441;28;20060;-68
2023/03/13 02:48:50;;;;;;;4.32;1.20;;;23.40;99.90;;;;;;5029425;28;20030;-68
2023/03/13 02:51:31;;;;;;;8.10;1.65;;;23.40;99.90;;;;;;5023056;28;20052;-69
2023/03/13 02:54:13;;;;;;;3.83;1.75;;;23.50;99.90;;;;;;5017809;28;20037;-68
2023/03/13 02:56:46;;;;;;;6.40;1.35;;;23.50;99.90;;;;;;5025871;28;20525;-69
2023/03/13 02:59:13;;;;;;;6.93;1.42;;;23.40;99.90;;;;;;5026379;28;20025;-69
2023/03/13 03:01:41;;;;;;;2.65;1.20;;;23.40;99.90;;;;;;5020549;28;20144;-67
2023/03/13 03:04:08;;;;;;;5.07;1.42;;;23.50;99.90;;;;;;5025534;28;20525;-66
2023/03/13 03:06:36;;;;;;;16.50;2.38;;;23.60;99.90;;;;;;5034691;28;20556;-68
2023/03/13 03:09:06;;;;;;;8.88;2.03;;;23.60;99.90;;;;;;5029647;28;20062;-68
2023/03/13 03:11:34;;;;;;;11.23;2.92;;;23.40;99.90;;;;;;5023793;28;20029;-69
2023/03/13 03:14:02;;;;;;;9.55;1.92;;;23.50;99.90;;;;;;5033043;28;20480;-68
2023/03/13 03:16:29;;;;;;;8.57;2.35;;;23.50;99.90;;;;;;5021644;28;20505;-69
2023/03/13 03:18:59;;;;;;;11.75;1.80;;;23.50;99.90;;;;;;5032184;28;20439;-68
2023/03/13 03:21:27;;;;;;;6.35;1.58;;;23.50;99.90;;;;;;5030151;28;20635;-68
2023/03/13 03:23:55;;;;;;;5.82;1.60;;;23.60;99.90;;;;;;5025378;28;20029;-68
2023/03/13 03:26:22;;;;;;;3.33;0.77;;;23.60;99.90;;;;;;5032768;28;20025;-69
2023/03/13 03:28:50;;;;;;;4.47;0.95;;;23.50;99.90;;;;;;5036298;28;20037;-69
2023/03/13 03:31:17;;;;;;;4.63;0.98;;;23.50;99.90;;;;;;5029700;28;20025;-68
2023/03/13 03:33:45;;;;;;;4.55;1.20;;;23.50;99.90;;;;;;5026045;28;20486;-67
2023/03/13 03:36:23;;;;;;;5.68;1.33;;;23.60;99.90;;;;;;5026693;28;20029;-67
2023/03/13 03:38:51;;;;;;;3.75;0.82;;;23.60;99.90;;;;;;5026702;28;20490;-66
2023/03/13 03:41:19;;;;;;;10.70;1.98;;;23.70;99.90;;;;;;5032813;28;20056;-68
2023/03/13 03:43:47;;;;;;;5.22;1.42;;;23.60;99.90;;;;;;5034059;28;20104;-68
2023/03/13 03:46:15;;;;;;;5.28;1.33;;;23.50;99.90;;;;;;5043165;28;20568;-70
2023/03/13 03:48:43;;;;;;;5.82;1.25;;;23.50;99.90;;;;;;5037567;28;20084;-65
2023/03/13 03:51:10;;;;;;;4.35;1.33;;;23.40;99.90;;;;;;5029370;28;20021;-67
2023/03/13 03:53:38;;;;;;;6.10;1.25;;;23.50;99.90;;;;;;5032279;28;20108;-66
2023/03/13 03:56:06;;;;;;;12.77;2.47;;;23.40;99.90;;;;;;5026818;28;20026;-67
2023/03/13 03:58:33;;;;;;;7.57;2.08;;;23.40;99.90;;;;;;5025716;28;20034;-67
2023/03/13 04:01:01;;;;;;;3.65;1.13;;;23.20;99.90;;;;;;5039352;28;20017;-67
2023/03/13 04:03:28;;;;;;;5.45;1.95;;;23.20;99.90;;;;;;5036906;28;20120;-66
2023/03/13 04:05:55;;;;;;;4.63;1.17;;;23.20;99.90;;;;;;5030741;28;20584;-67
2023/03/13 04:08:23;;;;;;;5.65;1.08;;;23.30;99.90;;;;;;5019396;28;20029;-68
2023/03/13 04:10:51;;;;;;;9.07;1.30;;;23.40;99.90;;;;;;5042491;28;20047;-67
2023/03/13 04:13:18;;;;;;;9.25;1.52;;;23.40;99.90;;;;;;5039401;28;20627;-66
2023/03/13 04:15:47;;;;;;;7.10;1.48;;;23.40;99.90;;;;;;5030598;28;20025;-66
2023/03/13 04:18:15;;;;;;;8.55;1.98;;;23.50;99.90;;;;;;5037906;28;20033;-66
2023/03/13 04:20:43;;;;;;;12.70;1.98;;;23.40;99.90;;;;;;5043062;28;20056;-66
2023/03/13 04:23:10;;;;;;;6.18;2.00;;;23.40;99.90;;;;;;5034351;28;20052;-65
2023/03/13 04:25:38;;;;;;;7.25;1.25;;;23.40;99.90;;;;;;5032479;28;20029;-66
2023/03/13 04:28:05;;;;;;;3.47;1.45;;;23.30;99.90;;;;;;5041039;28;20036;-66
2023/03/13 04:30:33;;;;;;;4.03;1.35;;;23.30;99.90;;;;;;5035804;28;20029;-66
2023/03/13 04:33:00;;;;;;;7.20;1.23;;;23.30;99.90;;;;;;5045778;28;20219;-66
2023/03/13 04:35:28;;;;;;;5.45;1.08;;;23.30;99.90;;;;;;5033688;28;20044;-66
2023/03/13 04:37:55;;;;;;;2.40;0.80;;;23.40;99.90;;;;;;5025492;28;20029;-67
2023/03/13 04:40:23;;;;;;;4.80;1.13;;;23.40;99.90;;;;;;5034815;28;20114;-67
2023/03/13 04:42:50;;;;;;;10.43;1.30;;;23.40;99.90;;;;;;5040192;28;20048;-67
2023/03/13 04:45:17;;;;;;;6.60;1.30;;;23.40;99.90;;;;;;5026674;28;20043;-66
2023/03/13 04:47:46;;;;;;;6.15;1.08;;;23.40;99.90;;;;;;5034741;28;20064;-66
2023/03/13 04:50:14;;;;;;;7.25;1.30;;;23.20;99.90;;;;;;5031739;28;20025;-67
2023/03/13 04:52:41;;;;;;;7.03;2.10;;;23.20;99.90;;;;;;5030559;28;20049;-65
2023/03/13 04:55:09;;;;;;;5.97;1.95;;;23.20;99.90;;;;;;5031544;28;20083;-66
2023/03/13 04:57:36;;;;;;;6.70;0.85;;;23.30;99.90;;;;;;5032466;28;20091;-66
2023/03/13 05:00:15;;;;;;;9.25;1.60;;;23.40;99.90;;;;;;5027287;28;20029;-65
2023/03/13 05:02:42;;;;;;;10.02;2.00;;;23.50;99.90;;;;;;5026737;28;20033;-65
2023/03/13 05:05:09;;;;;;;6.63;1.30;;;23.60;99.90;;;;;;5029460;28;20036;-66
2023/03/13 05:07:37;;;;;;;8.48;1.42;;;23.70;99.90;;;;;;5037817;28;20078;-66
2023/03/13 05:10:05;;;;;;;7.30;1.48;;;23.70;99.90;;;;;;5046967;28;20057;-66
2023/03/13 05:12:32;;;;;;;7.05;1.10;;;23.60;99.90;;;;;;5026968;28;20061;-66
2023/03/13 05:15:00;;;;;;;10.30;1.42;;;23.60;99.90;;;;;;5029534;28;20048;-66
2023/03/13 05:17:27;;;;;;;8.43;1.30;;;23.50;99.90;;;;;;5027564;28;20025;-65
2023/03/13 05:19:54;;;;;;;5.38;1.73;;;23.40;99.90;;;;;;5032090;28;20022;-65
2023/03/13 05:22:22;;;;;;;10.13;1.20;;;23.40;99.90;;;;;;5026842;28;20710;-66
2023/03/13 05:24:49;;;;;;;6.65;1.52;;;23.50;99.90;;;;;;5034047;28;20395;-68
2023/03/13 05:27:16;;;;;;;7.78;1.65;;;23.60;99.90;;;;;;5031571;28;20029;-65
2023/03/13 05:29:44;;;;;;;8.90;2.10;;;23.50;99.90;;;;;;5034216;28;20098;-65
2023/03/13 05:32:11;;;;;;;7.70;1.17;;;23.50;99.90;;;;;;5030595;28;20029;-66
2023/03/13 05:34:39;;;;;;;9.90;1.60;;;23.60;99.90;;;;;;5036203;28;20048;-68
2023/03/13 05:37:06;;;;;;;10.30;1.48;;;23.60;99.90;;;;;;5030727;28;20120;-69
2023/03/13 05:39:34;;;;;;;4.72;1.20;;;23.60;99.90;;;;;;5031495;28;20070;-66
2023/03/13 05:42:01;;;;;;;7.20;1.20;;;23.40;99.90;;;;;;5032473;28;20029;-66
2023/03/13 05:44:28;;;;;;;6.85;1.35;;;23.50;99.90;;;;;;5015930;28;20075;-66
2023/03/13 05:46:56;;;;;;;8.27;1.70;;;23.50;99.90;;;;;;5025739;28;20075;-66
2023/03/13 05:49:23;;;;;;;9.63;2.58;;;23.40;99.90;;;;;;5028691;28;20033;-66
2023/03/13 05:51:51;;;;;;;9.15;2.70;;;23.30;99.90;;;;;;5025442;28;20038;-66
2023/03/13 05:54:18;;;;;;;6.82;1.67;;;23.30;99.90;;;;;;5026027;28;20039;-66
2023/03/13 05:56:49;;;;;;;10.23;2.65;;;23.20;99.90;;;;;;5024924;28;20025;-65
2023/03/13 05:59:16;;;;;;;10.65;1.65;;;23.20;99.90;;;;;;5035119;28;20021;-66
2023/03/13 06:01:44;;;;;;;8.00;1.60;;;23.30;99.90;;;;;;5021897;28;20041;-66
2023/03/13 06:04:11;;;;;;;7.55;1.05;;;23.50;99.90;;;;;;5022254;28;20032;-66
2023/03/13 06:06:39;;;;;;;8.25;2.22;;;23.40;99.90;;;;;;5023572;28;20040;-66
2023/03/13 06:09:06;;;;;;;14.95;2.67;;;23.60;99.90;;;;;;5010741;28;20029;-66
2023/03/13 06:11:34;;;;;;;5.05;1.30;;;23.60;99.90;;;;;;5025888;28;20040;-66
2023/03/13 06:14:01;;;;;;;5.40;1.52;;;23.60;99.90;;;;;;5027072;28;20535;-66
2023/03/13 06:16:28;;;;;;;6.40;1.42;;;23.50;99.90;;;;;;5024512;28;20121;-65
2023/03/13 06:18:57;;;;;;;13.02;4.38;;;23.40;99.90;;;;;;5023011;28;20457;-66
2023/03/13 06:21:24;;;;;;;7.32;1.13;;;23.40;99.90;;;;;;5021933;28;20144;-66
2023/03/13 06:23:53;;;;;;;6.60;1.48;;;23.20;99.90;;;;;;5031242;28;20064;-66
2023/03/13 06:26:23;;;;;;;7.35;1.38;;;23.20;99.90;;;;;;5037502;28;20421;-65
2023/03/13 06:28:51;;;;;;;4.55;1.50;;;23.10;99.90;;;;;;5025780;28;20021;-65
2023/03/13 06:31:18;;;;;;;16.25;4.95;;;23.00;99.90;;;;;;5027420;28;20087;-65
2023/03/13 06:33:46;;;;;;;6.03;1.20;;;23.00;99.90;;;;;;5023589;28;20117;-65
2023/03/13 06:36:13;;;;;;;6.47;1.38;;;23.00;99.90;;;;;;5006818;28;20109;-65
2023/03/13 06:38:41;;;;;;;6.78;1.25;;;23.00;99.90;;;;;;5033804;28;20128;-66
2023/03/13 06:41:08;;;;;;;4.97;1.67;;;23.00;99.90;;;;;;5024008;28;20108;-65
2023/03/13 06:43:39;;;;;;;8.18;3.30;;;23.00;99.90;;;;;;5021049;28;20037;-65
2023/03/13 06:46:08;;;;;;;10.23;2.85;;;23.00;99.90;;;;;;5037926;28;20036;-65
2023/03/13 06:48:35;;;;;;;6.47;1.92;;;23.00;99.90;;;;;;5020397;28;20032;-64
2023/03/13 06:51:03;;;;;;;3.83;1.40;;;23.00;99.90;;;;;;5020803;28;20029;-65
2023/03/13 06:53:30;;;;;;;7.07;2.60;;;23.00;99.90;;;;;;5009331;28;20034;-64
2023/03/13 06:56:01;;;;;;;8.73;3.28;;;23.00;99.90;;;;;;5015837;28;20022;-66
2023/03/13 06:58:28;;;;;;;9.68;2.65;;;22.90;99.90;;;;;;5020329;28;20030;-64
2023/03/13 07:00:56;;;;;;;4.50;1.40;;;23.00;99.90;;;;;;5022680;28;20025;-65
2023/03/13 07:03:23;;;;;;;9.25;1.20;;;22.90;99.90;;;;;;5019414;28;20038;-64
2023/03/13 07:05:59;;;;;;;1.63;0.88;;;22.80;99.90;;;;;;5024794;28;20036;-65
2023/03/13 07:08:27;;;;;;;7.18;1.52;;;22.70;99.90;;;;;;5025614;28;20532;-66
2023/03/13 07:10:59;;;;;;;6.38;1.70;;;22.70;99.90;;;;;;5023646;28;20056;-66
2023/03/13 07:13:27;;;;;;;6.22;1.55;;;22.60;99.90;;;;;;5020762;28;21073;-67
2023/03/13 07:15:55;;;;;;;8.52;1.20;;;22.60;99.90;;;;;;5025098;28;20062;-67
2023/03/13 07:18:23;;;;;;;7.07;1.38;;;22.50;99.90;;;;;;5021091;28;20049;-66
2023/03/13 07:20:55;;;;;;;7.72;2.35;;;22.50;99.90;;;;;;5030817;28;20033;-67
2023/03/13 07:23:24;;;;;;;9.27;1.50;;;22.40;99.90;;;;;;5022709;28;20478;-68
2023/03/13 07:26:04;;;;;;;5.80;1.58;;;22.30;99.90;;;;;;5013095;28;20088;-68
2023/03/13 07:28:32;;;;;;;4.40;1.88;;;22.30;99.90;;;;;;5018116;28;20036;-66
2023/03/13 07:31:13;;;;;;;8.32;1.35;;;22.30;99.90;;;;;;5030018;28;20036;-68
2023/03/13 07:33:40;;;;;;;5.38;1.83;;;22.20;99.90;;;;;;5026029;28;20096;-70
2023/03/13 07:36:09;;;;;;;7.97;1.30;;;22.20;99.90;;;;;;5025781;28;20048;-67
2023/03/13 07:38:37;;;;;;;5.03;1.30;;;22.20;99.90;;;;;;5025618;28;20080;-66
2023/03/13 07:41:05;;;;;;;5.00;0.93;;;22.10;99.90;;;;;;5032807;28;20060;-65
2023/03/13 07:43:32;;;;;;;6.55;1.05;;;22.10;99.90;;;;;;5020434;28;20036;-65
2023/03/13 07:46:05;;;;;;;9.07;1.60;;;22.10;99.90;;;;;;5031277;28;20021;-66
2023/03/13 07:48:35;;;;;;;6.75;1.48;;;22.00;99.90;;;;;;5023413;28;20588;-67
2023/03/13 07:51:05;;;;;;;7.32;1.45;;;22.00;99.90;;;;;;5025541;28;20048;-68
2023/03/13 07:53:32;;;;;;;5.25;1.48;;;22.00;99.90;;;;;;5028155;28;20086;-68
2023/03/13 07:56:01;;;;;;;7.20;1.35;;;21.90;99.90;;;;;;5028726;28;20120;-66
2023/03/13 07:58:34;;;;;;;6.65;1.70;;;21.90;99.90;;;;;;5020198;28;20564;-67
2023/03/13 08:01:07;;;;;;;7.85;1.25;;;21.90;99.90;;;;;;5019918;28;20021;-67
2023/03/13 08:03:36;;;;;;;9.57;1.60;;;21.80;99.90;;;;;;5025716;28;20041;-67
2023/03/13 08:06:09;;;;;;;4.43;1.08;;;21.80;99.90;;;;;;5024984;28;20117;-67
2023/03/13 08:08:38;;;;;;;7.05;2.40;;;21.80;99.90;;;;;;5019732;28;20171;-66
2023/03/13 08:11:11;;;;;;;3.50;1.05;;;21.80;99.90;;;;;;5021689;28;20040;-64
2023/03/13 08:13:40;;;;;;;6.72;1.63;;;21.70;99.90;;;;;;5021201;28;20032;-63
2023/03/13 08:16:10;;;;;;;6.38;1.45;;;21.70;99.90;;;;;;5023229;28;20021;-62
2023/03/13 08:18:40;;;;;;;7.32;1.75;;;21.70;99.90;;;;;;5018109;28;20079;-62
2023/03/13 08:21:11;;;;;;;12.70;2.03;;;21.60;99.90;;;;;;5018675;28;20085;-64
2023/03/13 08:23:38;;;;;;;7.53;1.92;;;21.60;99.90;;;;;;5016516;28;20037;-59
2023/03/13 08:26:12;;;;;;;8.50;2.10;;;21.50;99.90;;;;;;5011533;28;20502;-60
2023/03/13 08:28:41;;;;;;;7.18;1.60;;;21.40;99.90;;;;;;5012174;28;20490;-61
2023/03/13 08:31:19;;;;;;;5.88;1.73;;;21.30;99.90;;;;;;5018798;28;20464;-62
2023/03/13 08:33:47;;;;;;;8.88;2.25;;;21.30;99.90;;;;;;5023452;28;20783;-61
2023/03/13 08:36:19;;;;;;;6.25;2.33;;;21.20;99.90;;;;;;5020185;28;20041;-61
2023/03/13 08:38:48;;;;;;;4.32;1.40;;;21.20;99.90;;;;;;5018955;28;20026;-59
2023/03/13 08:41:20;;;;;;;5.07;1.73;;;21.10;99.90;;;;;;5020335;28;20017;-62
2023/03/13 08:43:48;;;;;;;4.93;1.60;;;21.10;99.90;;;;;;5017173;28;20506;-61
2023/03/13 08:46:16;;;;;;;7.13;1.70;;;21.10;99.90;;;;;;5025424;28;20745;-61
2023/03/13 08:48:43;;;;;;;6.40;1.63;;;21.00;99.90;;;;;;5020055;28;20107;-61
2023/03/13 08:51:15;;;;;;;6.38;1.50;;;21.00;99.90;;;;;;5013442;28;20028;-61
2023/03/13 08:53:44;;;;;;;2.80;1.23;;;20.90;99.90;;;;;;5016135;28;20030;-61
2023/03/13 08:56:13;;;;;;;6.85;1.40;;;20.90;99.90;;;;;;5021075;28;20059;-62
2023/03/13 08:58:41;;;;;;;6.32;1.25;;;20.90;99.90;;;;;;5015086;28;20040;-61
2023/03/13 09:01:12;;;;;;;3.78;1.33;;;20.90;99.90;;;;;;5014535;28;20033;-62
2023/03/13 09:03:40;;;;;;;4.50;1.00;;;20.90;99.90;;;;;;5015307;28;20128;-62
2023/03/13 09:06:09;;;;;;;12.77;2.40;;;20.90;99.90;;;;;;5014860;28;20064;-62
2023/03/13 09:08:37;;;;;;;4.97;1.70;;;20.90;99.90;;;;;;5016891;28;20140;-63
2023/03/13 09:11:16;;;;;;;6.90;1.60;;;21.00;99.90;;;;;;5014121;28;20096;-62
2023/03/13 09:13:46;;;;;;;7.97;1.77;;;21.00;99.90;;;;;;5011365;28;20494;-61
2023/03/13 09:16:25;;;;;;;6.75;2.20;;;21.00;99.90;;;;;;5018121;28;20057;-64
2023/03/13 09:18:53;;;;;;;8.13;2.25;;;20.90;99.90;;;;;;5013250;28;20028;-63
2023/03/13 09:21:24;;;;;;;6.82;2.15;;;20.80;99.90;;;;;;5013562;28;20033;-61
2023/03/13 09:23:52;;;;;;;7.53;1.50;;;20.60;99.90;;;;;;5018972;28;20653;-61
2023/03/13 09:26:20;;;;;;;7.72;2.40;;;20.50;99.90;;;;;;5018653;28;20112;-60
2023/03/13 09:28:48;;;;;;;9.18;1.80;;;20.30;99.90;;;;;;5019951;28;20029;-62
2023/03/13 09:31:22;;;;;;;6.63;2.00;;;20.10;99.90;;;;;;5018849;28;20029;-63
2023/03/13 09:33:51;;;;;;;7.75;2.05;;;20.00;99.90;;;;;;5017662;28;20043;-61
2023/03/13 09:36:19;;;;;;;6.57;2.10;;;19.90;99.90;;;;;;5021879;28;20033;-62
2023/03/13 09:38:47;;;;;;;5.60;1.40;;;19.90;99.90;;;;;;5024534;28;20080;-60
2023/03/13 09:41:17;;;;;;;7.07;2.38;;;19.90;99.90;;;;;;5019736;28;20053;-61
2023/03/13 09:44:06;;;;;;;5.78;1.90;;;19.80;99.90;;;;;;5022908;28;20033;-61
2023/03/13 09:46:43;;;;;;;11.02;2.10;;;19.90;99.90;;;;;;5016765;28;20493;-61
2023/03/13 09:49:29;;;;;;;13.13;1.92;;;19.80;99.90;;;;;;5033242;28;20037;-61
2023/03/13 09:52:11;;;;;;;7.57;3.35;;;19.80;99.90;;;;;;5033422;28;20029;-61
2023/03/13 09:54:46;;;;;;;9.88;1.42;;;19.80;99.90;;;;;;5026506;28;20036;-61
2023/03/13 09:57:20;;;;;;;8.15;2.10;;;19.80;99.90;;;;;;5023685;28;20403;-60
2023/03/13 10:00:11;;;;;;;10.20;1.52;;;19.80;99.90;;;;;;5026649;28;20033;-61
2023/03/13 10:02:43;;;;;;;6.28;2.17;;;19.80;99.90;;;;;;5028501;28;20079;-61
2023/03/13 10:05:19;;;;;;;7.45;1.52;;;19.80;99.90;;;;;;5018174;28;20060;-60
2023/03/13 10:07:47;;;;;;;8.73;1.73;;;19.80;99.90;;;;;;5027149;28;20034;-62
2023/03/13 10:10:25;;;;;;;5.57;1.95;;;19.80;99.90;;;;;;5020681;28;20441;-61
2023/03/13 10:12:59;;;;;;;13.35;1.75;;;19.70;99.90;;;;;;5023148;28;20804;-62
2023/03/13 10:15:44;;;;;;;6.70;2.85;;;19.70;99.90;;;;;;5020682;28;20061;-62
2023/03/13 10:18:21;;;;;;;7.38;2.25;;;19.70;99.90;;;;;;5025551;28;20029;-61
2023/03/13 10:20:52;;;;;;;4.32;1.75;;;19.60;99.90;;;;;;5026216;28;20501;-64
2023/03/13 10:23:21;;;;;;;15.50;1.88;;;19.60;99.90;;;;;;5021237;28;20033;-61
2023/03/13 10:25:49;;;;;;;7.25;1.58;;;19.60;99.90;;;;;;5019904;28;20071;-61
2023/03/13 10:28:21;;;;;;;9.75;1.88;;;19.60;99.90;;;;;;5025812;28;20037;-63
2023/03/13 10:31:10;;;;;;;5.55;1.70;;;19.60;99.90;;;;;;5028233;28;20057;-62
2023/03/13 10:33:38;;;;;;;6.82;1.83;;;19.60;99.90;;;;;;5017697;28;20371;-61
2023/03/13 10:36:06;;;;;;;8.57;2.10;;;19.60;99.90;;;;;;5022894;28;20025;-62
2023/03/13 10:38:50;;;;;;;7.55;1.90;;;19.60;99.90;;;;;;5020891;28;20529;-61
2023/03/13 10:41:37;;;;;;;8.68;2.30;;;19.60;99.90;;;;;;5016343;28;20022;-61
2023/03/13 10:44:14;;;;;;;6.47;2.20;;;19.60;99.90;;;;;;5022128;28;20771;-63
2023/03/13 10:46:44;;;;;;;5.70;2.30;;;19.60;99.90;;;;;;5029187;28;20029;-64
2023/03/13 10:49:22;;;;;;;8.20;2.13;;;19.60;99.90;;;;;;5020438;28;20754;-64
2023/03/13 10:51:56;;;;;;;6.35;2.38;;;19.60;99.90;;;;;;5030261;28;20060;-64
2023/03/13 10:54:35;;;;;;;11.13;2.10;;;19.60;99.90;;;;;;5039117;28;20013;-64
2023/03/13 10:57:33;;;;;;;6.60;2.05;;;19.60;99.90;;;;;;5022611;28;20041;-64
2023/03/13 11:00:21;;;;;;;10.38;1.92;;;19.60;99.90;;;;;;5027933;28;20117;-63
2023/03/13 11:02:49;;;;;;;11.10;2.65;;;19.60;99.90;;;;;;5038004;28;20052;-63
2023/03/13 11:05:36;;;;;;;10.35;3.70;;;19.60;99.90;;;;;;5019294;28;20040;-63
2023/03/13 11:08:20;;;;;;;19.42;3.40;;;19.60;99.90;;;;;;5018852;28;20025;-65
2023/03/13 11:10:56;;;;;;;17.38;3.75;;;19.60;99.90;;;;;;5022710;28;20027;-62
2023/03/13 11:13:44;;;;;;;14.98;3.50;;;19.60;99.90;;;;;;5036913;28;20029;-63
2023/03/13 11:16:19;;;;;;;9.10;2.58;;;19.60;99.90;;;;;;5018473;28;20040;-65
2023/03/13 11:18:58;;;;;;;11.45;2.08;;;19.60;99.90;;;;;;5018069;28;20106;-64
2023/03/13 11:22:01;;;;;;;10.48;2.00;;;19.60;99.90;;;;;;5036282;28;20052;-63
2023/03/13 11:24:35;;;;;;;11.05;2.20;;;19.50;99.90;;;;;;4976250;28;20038;-63
2023/03/13 11:27:23;;;;;;;6.30;1.90;;;19.50;99.90;;;;;;5021601;28;20061;-64
2023/03/13 11:30:29;;;;;;;10.15;2.30;;;19.50;99.90;;;;;;5029890;28;20075;-64
2023/03/13 11:32:59;;;;;;;;;;;19.40;99.90;;;;;;5006789;28;20092;-65
2023/03/13 11:35:26;;;;;;;4.72;1.50;;;19.40;99.90;;;;;;5026240;28;20615;-64
2023/03/13 11:37:59;;;;;;;8.82;2.20;;;19.40;99.90;;;;;;5024595;28;20033;-63
2023/03/13 11:40:49;;;;;;;9.68;1.80;;;19.40;99.90;;;;;;5023605;28;20014;-64
2023/03/13 11:43:51;;;;;;;7.57;2.30;;;19.50;99.90;;;;;;5017896;28;20041;-64
2023/03/13 11:46:56;;;;;;;11.38;2.30;;;19.50;99.90;;;;;;5029872;28;20046;-64
2023/03/13 11:49:30;;;;;;;7.45;2.25;;;19.40;99.90;;;;;;4994127;28;20080;-64
2023/03/13 11:52:36;;;;;;;14.83;2.30;;;19.40;99.90;;;;;;5024444;28;20021;-65
2023/03/13 11:55:38;;;;;;;11.07;2.65;;;19.40;99.90;;;;;;5028940;28;20386;-64
2023/03/13 11:58:35;;;;;;;5.18;1.70;;;19.40;99.90;;;;;;5033705;28;20025;-63
2023/03/13 12:01:15;;;;;;;9.77;2.33;;;19.40;99.90;;;;;;4967959;28;20039;-64
2023/03/13 12:03:55;;;;;;;8.52;2.10;;;19.30;99.90;;;;;;5029038;28;20513;-63
2023/03/13 12:06:40;;;;;;;10.25;2.20;;;19.30;99.90;;;;;;5017568;28;20053;-64
2023/03/13 12:09:15;;;;;;;7.55;2.40;;;19.20;99.90;;;;;;5037451;28;20033;-64
2023/03/13 12:11:48;;;;;;;7.68;2.05;;;19.20;99.90;;;;;;5033543;28;20021;-64
2023/03/13 12:14:33;;;;;;;13.10;3.17;;;19.10;99.90;;;;;;5036891;28;20080;-63
2023/03/13 12:17:23;;;;;;;5.97;2.10;;;19.00;99.90;;;;;;5031694;28;20501;-64
2023/03/13 12:20:21;;;;;;;8.23;2.22;;;19.00;99.90;;;;;;5028343;28;20394;-64
2023/03/13 12:23:10;;;;;;;14.82;2.10;;;19.00;99.90;;;;;;5025917;28;20044;-65
2023/03/13 12:25:44;;;;;;;13.45;2.80;;;18.90;99.90;;;;;;5026671;28;20053;-64
2023/03/13 12:28:32;;;;;;;13.90;2.85;;;19.00;99.90;;;;;;5018654;28;20060;-64
2023/03/13 12:31:18;;;;;;;9.20;2.13;;;19.00;99.90;;;;;;5022791;28;20052;-64
2023/03/13 12:34:13;;;;;;;13.05;2.60;;;19.00;99.90;;;;;;5028339;28;20123;-64
2023/03/13 12:37:11;;;;;;;6.72;2.35;;;18.90;99.90;;;;;;5036583;28;20060;-64
2023/03/13 12:39:57;;;;;;;9.05;2.40;;;19.00;99.90;;;;;;5028829;28;20025;-64
2023/03/13 12:42:49;;;;;;;12.27;2.33;;;18.90;99.90;;;;;;5021763;28;20042;-65
2023/03/13 12:45:20;;;;;;;7.00;2.13;;;18.90;99.90;;;;;;5032046;28;20028;-64
2023/03/13 12:48:45;;;;;;;5.95;2.05;;;18.80;99.90;;;;;;5022755;28;20152;-64
2023/03/13 12:51:49;;;;;;;7.15;1.92;;;18.80;99.90;;;;;;4999092;28;20111;-64
2023/03/13 12:54:22;;;;;;;7.95;1.80;;;18.80;99.90;;;;;;5018881;28;20029;-64
2023/03/13 12:57:13;;;;;;;6.18;2.05;;;18.80;99.90;;;;;;5029679;28;20316;-64
2023/03/13 12:59:45;;;;;;;11.38;1.98;;;18.80;99.90;;;;;;5032630;28;20029;-65
2023/03/13 13:02:26;;;;;;;11.00;2.10;;;18.80;99.90;;;;;;5029621;28;20032;-64
2023/03/13 13:04:55;;;;;;;10.93;2.92;;;18.80;99.90;;;;;;5027884;28;20046;-64
2023/03/13 13:07:33;;;;;;;10.13;1.92;;;18.80;99.90;;;;;;5042958;28;20112;-64
2023/03/13 13:10:03;;;;;;;7.75;2.40;;;18.70;99.90;;;;;;5029585;28;20025;-64
2023/03/13 13:12:31;;;;;;;11.13;1.70;;;18.70;99.90;;;;;;5024176;28;20034;-64
2023/03/13 13:15:04;;;;;;;6.35;2.28;;;18.70;99.90;;;;;;5043275;28;20021;-64